Berrien Springs, MI

3:36 AM EDT on May 29, 2015 (GMT -0400)
South Haven | | Change Station
CLOSE
Current Station
Airport
Location: South Haven,
Elevation: 666 ft
Nearby Weather Stations

Elev 666 ft 42.35 °N, 86.26 °W | Updated 21 minutes ago

Partly Cloudy
Partly Cloudy
67 °F
Feels Like 67 °F
N
9
Wind Variable Wind from SE

Today
High -- | Low -- °F
--% Chance of Precip.
Yesterday
High -- | Low -- °F
Precip. -- in
6:14 AM 9:11 PM
Waxing Gibbous, 82% visible
Pressure 30.10 in
Visibility 10.0 miles
Clouds Mostly Cloudy 7000 ft
Dew Point 55 °F
Humidity 66%
Rainfall 0.00 in
Snow Depth Not available.
UV 0 out of 12
Pollen 9.50 out of 12
Air Quality Not available.
Flu Activity Sporadic
METAR KLWA 290715Z AUTO 14008KT 10SM BKN070 19/13 A3010 RMK AO2 T01940128

More Conditions Fewer Conditions

Pressure 30.10 in
Visibility 10.0 miles
Clouds Mostly Cloudy 7000 ft
Dew Point 55 °F
Humidity 66%
Rainfall 0.00 in
Snow Depth Not available.
UV 0 out of 12
Pollen 9.50 out of 12
Air Quality Not available.
Flu Activity Sporadic
METAR KLWA 290715Z AUTO 14008KT 10SM BKN070 19/13 A3010 RMK AO2 T01940128

More Conditions Fewer Conditions

10-Day Weather Forecast

Almanac

Astronomy

May. 29, 2015 Rise Set
Actual Time
Civil Twilight
Nautical Twilight
Astronomical Twilight
Moon
Length of Visible Light
Length of Day
Tomorrow will be .
, % of the Moon is Illuminated

Today's Extremes

State Highs State Lows

Community

WunderPhotos

Upload Photos

1,825,215 photos uploaded!

WunderBlogs® & News

Nearby

Air Quality

  Air Quality AQ Index Pollutant
Not available.

Snow Depth

Station Depth Elevation

Earthquake Activity

City Distance Mag. Time & Date
Minimum magnitude displayed is 2.5.

Coastal Water Temperatures

Place Temperature

Stations

Nearby Weather Stations

Station Location Temp. Windchill Dew Point Humidity Wind Precip. Elev Updated Type